createdAt,value
2018-04-18T00:00:39.195Z,16.80
2018-04-18T00:01:39.193Z,16.80
2018-04-18T00:03:44.846Z,16.80
2018-04-18T00:04:44.868Z,16.80
2018-04-18T00:06:38.628Z,16.89
2018-04-18T00:07:38.626Z,16.80
2018-04-18T00:09:32.384Z,16.80
2018-04-18T00:10:32.457Z,16.80
2018-04-18T00:12:38.044Z,16.99
2018-04-18T00:13:38.063Z,17.19
2018-04-18T00:15:31.826Z,17.09
2018-04-18T00:16:31.825Z,17.28
2018-04-18T00:18:26.436Z,17.47
2018-04-18T00:19:26.433Z,17.09
2018-04-18T00:21:32.106Z,17.09
2018-04-18T00:22:32.105Z,17.19
2018-04-18T00:24:25.027Z,17.09
2018-04-18T00:25:25.013Z,17.28
2018-04-18T00:27:17.937Z,17.09
2018-04-18T00:28:17.924Z,16.80
2018-04-18T00:30:11.700Z,17.09
2018-04-18T00:31:11.720Z,17.09
2018-04-18T00:33:05.482Z,17.19
2018-04-18T00:34:05.483Z,17.47
2018-04-18T00:35:58.397Z,17.09
2018-04-18T00:36:58.399Z,17.09
2018-04-18T00:38:51.312Z,17.28
2018-04-18T00:39:51.310Z,17.28
2018-04-18T00:41:44.225Z,17.09
2018-04-18T00:42:44.223Z,17.38
2018-04-18T00:44:37.997Z,16.99
2018-04-18T00:45:37.984Z,16.99
2018-04-18T00:47:30.876Z,17.19
2018-04-18T00:48:30.904Z,16.99
2018-04-18T00:50:23.811Z,16.80
2018-04-18T00:51:23.808Z,16.80
2018-04-18T00:53:16.725Z,16.80
2018-04-18T00:54:16.722Z,16.80
2018-04-18T00:56:10.484Z,16.80
2018-04-18T00:57:10.482Z,16.80
2018-04-18T00:59:16.158Z,16.80
2018-04-18T01:00:16.191Z,16.89
2018-04-18T01:02:09.893Z,16.80
2018-04-18T01:03:09.913Z,16.80
2018-04-18T01:05:04.524Z,16.51
2018-04-18T01:06:04.522Z,16.80
2018-04-18T01:07:57.447Z,16.80
2018-04-18T01:08:57.435Z,16.70
2018-04-18T01:10:51.198Z,16.61
2018-04-18T01:11:51.196Z,16.80
2018-04-18T01:13:56.849Z,16.70
2018-04-18T01:14:56.863Z,16.61
2018-04-18T01:16:49.779Z,16.70
2018-04-18T01:17:49.816Z,16.61
2018-04-18T01:19:44.615Z,16.89
2018-04-18T01:20:44.618Z,16.61
2018-04-18T01:22:37.570Z,16.51
2018-04-18T01:23:37.531Z,16.61
2018-04-18T01:25:30.442Z,16.61
2018-04-18T01:26:30.439Z,16.61
2018-04-18T01:28:23.332Z,16.70
2018-04-18T01:29:23.351Z,16.89
2018-04-18T01:31:17.152Z,16.61
2018-04-18T01:32:17.115Z,16.61
2018-04-18T01:34:23.139Z,16.80
2018-04-18T01:35:22.778Z,16.61
2018-04-18T01:37:15.693Z,16.89
2018-04-18T01:38:15.714Z,16.61
2018-04-18T01:40:21.339Z,16.80
2018-04-18T01:41:21.358Z,16.61
2018-04-18T01:43:14.274Z,16.80
2018-04-18T01:44:14.271Z,16.80
2018-04-18T01:46:19.939Z,16.80
2018-04-18T01:47:19.938Z,16.89
2018-04-18T01:49:12.853Z,16.80
2018-04-18T01:50:12.853Z,16.70
2018-04-18T01:52:18.522Z,16.80
2018-04-18T01:53:18.519Z,16.80
2018-04-18T01:55:12.259Z,16.80
2018-04-18T01:56:12.279Z,16.80
2018-04-18T01:58:06.289Z,16.70
2018-04-18T01:59:06.040Z,16.80
2018-04-18T02:00:58.953Z,16.70
2018-04-18T02:01:58.953Z,16.51
2018-04-18T02:03:51.867Z,16.70
2018-04-18T02:04:51.864Z,16.70
2018-04-18T02:06:44.781Z,16.70
2018-04-18T02:07:44.778Z,16.80
2018-04-18T02:09:39.389Z,16.70
2018-04-18T02:10:39.387Z,16.80
2018-04-18T02:12:45.055Z,16.51
2018-04-18T02:13:45.053Z,16.51
2018-04-18T02:15:38.796Z,16.51
2018-04-18T02:16:38.814Z,16.70
2018-04-18T02:18:33.425Z,16.61
2018-04-18T02:19:33.423Z,16.51
2018-04-18T02:21:39.125Z,16.61
2018-04-18T02:22:39.092Z,16.70
2018-04-18T02:24:32.008Z,16.61
2018-04-18T02:25:32.002Z,16.51
2018-04-18T02:27:37.650Z,16.61
2018-04-18T02:28:37.673Z,16.70
2018-04-18T02:30:30.582Z,16.61
2018-04-18T02:31:30.581Z,16.80
2018-04-18T02:33:36.249Z,16.70
2018-04-18T02:34:36.249Z,16.61
2018-04-18T02:36:29.162Z,16.80
2018-04-18T02:37:29.193Z,16.61
2018-04-18T02:39:35.052Z,16.61
2018-04-18T02:40:35.050Z,16.61
2018-04-18T02:42:27.962Z,16.61
2018-04-18T02:43:27.997Z,16.70
2018-04-18T02:45:21.713Z,16.70
2018-04-18T02:46:21.733Z,16.61
2018-04-18T02:48:16.333Z,16.80
2018-04-18T02:49:16.341Z,16.80
2018-04-18T02:51:09.264Z,16.70
2018-04-18T02:52:09.255Z,16.70
2018-04-18T02:54:14.926Z,16.70
2018-04-18T02:55:14.919Z,16.70
2018-04-18T02:57:07.814Z,16.80
2018-04-18T02:58:07.833Z,16.70
2018-04-18T03:00:02.470Z,16.70
2018-04-18T03:01:02.468Z,16.70
2018-04-18T03:02:57.061Z,16.51
2018-04-18T03:03:57.077Z,16.61
2018-04-18T03:06:02.749Z,16.70
2018-04-18T03:07:02.741Z,16.61
2018-04-18T03:08:55.673Z,16.61
2018-04-18T03:09:55.668Z,16.51
2018-04-18T03:12:01.335Z,16.61
2018-04-18T03:13:01.333Z,16.70
2018-04-18T03:14:54.247Z,16.51
2018-04-18T03:15:54.246Z,16.61
2018-04-18T03:17:48.857Z,16.61
2018-04-18T03:18:48.855Z,16.61
2018-04-18T03:20:41.811Z,16.70
2018-04-18T03:21:41.768Z,16.51
2018-04-18T03:23:35.546Z,16.61
2018-04-18T03:24:35.543Z,16.61
2018-04-18T03:26:28.445Z,16.61
2018-04-18T03:27:28.440Z,16.61
2018-04-18T03:29:21.355Z,16.61
2018-04-18T03:30:21.357Z,16.70
2018-04-18T03:32:14.268Z,16.61
2018-04-18T03:33:14.267Z,16.70
2018-04-18T03:35:08.033Z,16.61
2018-04-18T03:36:08.027Z,16.61
2018-04-18T03:38:00.942Z,16.70
2018-04-18T03:39:00.939Z,16.70
2018-04-18T03:40:53.854Z,16.61
2018-04-18T03:41:53.854Z,16.61
2018-04-18T03:43:46.766Z,16.61
2018-04-18T03:44:46.764Z,16.61
2018-04-18T03:46:40.563Z,16.51
2018-04-18T03:47:40.525Z,16.51
2018-04-18T03:49:33.437Z,16.89
2018-04-18T03:50:33.436Z,16.61
2018-04-18T03:52:26.422Z,16.89
2018-04-18T03:53:26.348Z,16.51
2018-04-18T03:55:19.262Z,16.80
2018-04-18T03:56:19.261Z,16.89
2018-04-18T03:58:13.024Z,16.89
2018-04-18T03:59:13.025Z,16.89
2018-04-18T04:01:05.937Z,16.89
2018-04-18T04:02:05.936Z,16.61
2018-04-18T04:03:58.849Z,16.80
2018-04-18T04:04:58.850Z,16.80
2018-04-18T04:06:51.746Z,16.80
2018-04-18T04:07:51.765Z,16.99
2018-04-18T04:09:45.521Z,16.89
2018-04-18T04:10:45.520Z,16.80
2018-04-18T04:12:51.224Z,16.61
2018-04-18T04:13:51.185Z,16.61
2018-04-18T04:15:44.104Z,16.80
2018-04-18T04:16:44.099Z,16.61
2018-04-18T04:18:49.765Z,16.61
2018-04-18T04:19:49.765Z,16.80
2018-04-18T04:21:43.528Z,16.61
2018-04-18T04:22:43.528Z,16.61
2018-04-18T04:24:38.138Z,16.89
2018-04-18T04:25:38.138Z,16.61
2018-04-18T04:27:31.051Z,16.61
2018-04-18T04:28:31.050Z,16.70
2018-04-18T04:30:23.964Z,16.89
2018-04-18T04:31:23.962Z,16.61
2018-04-18T04:33:16.882Z,16.61
2018-04-18T04:34:16.875Z,16.61
2018-04-18T04:36:10.637Z,16.70
2018-04-18T04:37:10.654Z,16.61
2018-04-18T04:39:16.304Z,16.99
2018-04-18T04:40:16.303Z,16.61
2018-04-18T04:42:09.221Z,16.61
2018-04-18T04:43:09.217Z,16.61
2018-04-18T04:45:14.900Z,16.70
2018-04-18T04:46:14.884Z,16.80
2018-04-18T04:48:07.832Z,16.90
2018-04-18T04:49:07.800Z,16.80
2018-04-18T04:51:13.471Z,16.61
2018-04-18T04:52:13.468Z,16.52
2018-04-18T04:54:06.614Z,16.71
2018-04-18T04:55:06.609Z,16.71
2018-04-18T04:57:00.377Z,16.81
2018-04-18T04:58:00.375Z,16.81
2018-04-18T04:59:53.291Z,16.90
2018-04-18T05:00:53.282Z,16.81
2018-04-18T05:02:46.198Z,17.19
2018-04-18T05:03:46.196Z,17.19
2018-04-18T05:05:51.865Z,16.90
2018-04-18T05:06:51.866Z,17.00
2018-04-18T05:08:44.759Z,17.10
2018-04-18T05:09:44.778Z,17.10
2018-04-18T05:11:50.456Z,17.10
2018-04-18T05:12:50.464Z,17.10
2018-04-18T05:14:44.453Z,17.10
2018-04-18T05:15:44.205Z,17.10
2018-04-18T05:17:38.797Z,17.11
2018-04-18T05:18:38.876Z,17.49
2018-04-18T05:20:31.791Z,17.49
2018-04-18T05:21:31.730Z,17.11
2018-04-18T05:23:26.341Z,17.11
2018-04-18T05:24:26.340Z,17.11
2018-04-18T05:26:32.014Z,17.50
2018-04-18T05:27:32.007Z,17.50
2018-04-18T05:29:24.924Z,17.40
2018-04-18T05:30:24.923Z,17.40
2018-04-18T05:32:19.587Z,17.60
2018-04-18T05:33:19.537Z,17.50
2018-04-18T05:35:25.204Z,17.21
2018-04-18T05:36:25.231Z,17.12
2018-04-18T05:38:18.124Z,17.12
2018-04-18T05:39:18.125Z,17.22
2018-04-18T05:41:23.792Z,17.22
2018-04-18T05:42:23.793Z,16.92
2018-04-18T05:44:16.687Z,17.12
2018-04-18T05:45:16.744Z,17.22
2018-04-18T05:47:11.322Z,17.12
2018-04-18T05:48:11.318Z,17.12
2018-04-18T05:50:04.233Z,17.41
2018-04-18T05:51:04.288Z,17.51
2018-04-18T05:52:57.147Z,17.41
2018-04-18T05:53:57.145Z,17.32
2018-04-18T05:55:50.078Z,17.22
2018-04-18T05:56:50.063Z,17.12
2018-04-18T05:58:43.836Z,17.12
2018-04-18T05:59:43.835Z,17.80
2018-04-18T06:01:49.506Z,17.80
2018-04-18T06:02:49.501Z,17.70
2018-04-18T06:04:42.422Z,17.51
2018-04-18T06:05:42.418Z,17.70
2018-04-18T06:07:37.030Z,17.51
2018-04-18T06:08:37.026Z,17.80
2018-04-18T06:10:30.153Z,17.51
2018-04-18T06:11:30.168Z,17.60
2018-04-18T06:13:23.088Z,17.51
2018-04-18T06:14:23.082Z,17.70
2018-04-18T06:16:28.755Z,17.70
2018-04-18T06:17:28.757Z,17.70
2018-04-18T06:19:21.934Z,17.60
2018-04-18T06:20:21.891Z,17.70
2018-04-18T06:22:15.637Z,17.32
2018-04-18T06:23:15.654Z,17.50
2018-04-18T06:25:08.569Z,17.60
2018-04-18T06:26:08.569Z,17.79
2018-04-18T06:28:01.481Z,17.80
2018-04-18T06:29:01.482Z,17.60
2018-04-18T06:30:54.396Z,17.60
2018-04-18T06:31:54.395Z,17.60
2018-04-18T06:33:48.187Z,17.60
2018-04-18T06:34:48.180Z,17.60
2018-04-18T06:35:48.190Z,17.51
2018-04-18T06:36:48.212Z,17.60
2018-04-18T06:37:48.242Z,17.60
2018-04-18T06:38:48.305Z,17.60
2018-04-18T06:39:48.294Z,17.90
2018-04-18T06:40:48.322Z,17.69
2018-04-18T06:41:48.348Z,17.60
2018-04-18T06:42:48.377Z,17.51
2018-04-18T06:43:48.404Z,17.51
2018-04-18T06:44:48.431Z,17.60
2018-04-18T06:45:48.500Z,17.60
2018-04-18T06:46:48.486Z,17.60
2018-04-18T06:47:48.513Z,17.60
2018-04-18T06:48:48.544Z,17.60
2018-04-18T06:49:48.574Z,17.50
2018-04-18T06:50:48.596Z,17.79
2018-04-18T06:51:48.623Z,17.60
2018-04-18T06:52:48.651Z,17.80
2018-04-18T06:53:48.683Z,17.60
2018-04-18T06:54:48.707Z,17.70
2018-04-18T06:55:48.736Z,17.69
2018-04-18T06:56:48.807Z,17.79
2018-04-18T06:57:48.788Z,17.60
2018-04-18T06:58:48.816Z,17.80
2018-04-18T06:59:48.843Z,17.60
2018-04-18T07:00:48.874Z,17.70
2018-04-18T07:01:48.898Z,17.60
2018-04-18T07:02:48.925Z,17.60
2018-04-18T07:03:48.974Z,17.60
2018-04-18T07:04:48.980Z,17.51
2018-04-18T07:05:49.011Z,17.50
2018-04-18T07:06:49.040Z,17.60
2018-04-18T07:07:49.077Z,17.41
2018-04-18T07:08:49.109Z,17.41
2018-04-18T07:09:49.117Z,17.21
2018-04-18T07:10:49.152Z,17.50
2018-04-18T07:11:49.179Z,17.12
2018-04-18T07:12:49.204Z,17.22
2018-04-18T07:13:49.231Z,17.21
2018-04-18T07:14:49.255Z,17.40
2018-04-18T07:15:49.285Z,17.40
2018-04-18T07:16:49.343Z,17.22
2018-04-18T07:17:49.337Z,17.40
2018-04-18T07:18:49.364Z,17.31
2018-04-18T07:19:49.407Z,17.41
2018-04-18T07:20:49.420Z,17.22
2018-04-18T07:21:49.446Z,17.12
2018-04-18T07:22:49.482Z,17.51
2018-04-18T07:23:49.504Z,17.51
2018-04-18T07:24:49.529Z,17.51
2018-04-18T07:25:49.556Z,17.12
2018-04-18T07:26:49.592Z,17.11
2018-04-18T07:27:49.611Z,17.11
2018-04-18T07:28:49.639Z,17.12
2018-04-18T07:29:49.666Z,17.11
2018-04-18T07:30:49.695Z,17.12
2018-04-18T07:31:49.723Z,17.02
2018-04-18T07:32:49.754Z,17.02
2018-04-18T07:33:49.775Z,17.32
2018-04-18T07:34:49.803Z,17.11
2018-04-18T07:35:49.840Z,17.21
2018-04-18T07:36:49.859Z,17.21
2018-04-18T07:37:49.885Z,17.21
2018-04-18T07:38:49.912Z,17.32
2018-04-18T07:39:49.941Z,17.11
2018-04-18T07:40:49.967Z,17.32
2018-04-18T07:41:49.996Z,17.11
2018-04-18T07:42:50.026Z,17.31
2018-04-18T07:43:50.056Z,17.40
2018-04-18T07:44:50.080Z,17.22
2018-04-18T07:45:50.107Z,17.21
2018-04-18T07:46:50.133Z,17.32
2018-04-18T07:47:50.161Z,17.31
2018-04-18T07:48:50.188Z,17.22
2018-04-18T07:49:50.215Z,17.21
2018-04-18T07:50:50.243Z,17.32
2018-04-18T07:51:50.269Z,17.22
2018-04-18T07:52:50.298Z,17.22
2018-04-18T07:53:50.333Z,17.12
2018-04-18T07:54:50.355Z,17.12
2018-04-18T07:55:50.380Z,17.32
2018-04-18T07:56:50.411Z,17.21
2018-04-18T07:57:50.435Z,17.11
2018-04-18T07:58:50.461Z,17.12
2018-04-18T07:59:50.489Z,17.32
2018-04-18T08:00:50.517Z,17.02
2018-04-18T08:01:50.568Z,17.02
2018-04-18T08:02:50.592Z,17.02
2018-04-18T08:03:50.599Z,17.02
2018-04-18T08:04:50.627Z,16.93
2018-04-18T08:05:50.655Z,16.93
2018-04-18T08:06:50.682Z,16.83
2018-04-18T08:07:50.708Z,16.93
2018-04-18T08:08:50.774Z,16.93
2018-04-18T08:09:50.762Z,16.83
2018-04-18T08:10:50.790Z,16.82
2018-04-18T08:11:50.819Z,17.02
2018-04-18T08:12:50.859Z,17.02
2018-04-18T08:13:50.872Z,17.02
2018-04-18T08:14:50.900Z,17.51
2018-04-18T08:15:50.931Z,17.12
2018-04-18T08:16:50.958Z,17.12
2018-04-18T08:17:50.985Z,17.41
2018-04-18T08:18:51.010Z,17.31
2018-04-18T08:19:51.038Z,17.02
2018-04-18T08:20:51.065Z,17.02
2018-04-18T08:21:51.121Z,16.82
2018-04-18T08:22:51.122Z,17.32
2018-04-18T08:23:51.190Z,17.02
2018-04-18T08:24:51.187Z,17.02
2018-04-18T08:25:51.204Z,16.82
2018-04-18T08:26:51.229Z,16.82
2018-04-18T08:27:51.257Z,16.92
2018-04-18T08:28:51.285Z,16.83
2018-04-18T08:29:51.313Z,16.83
2018-04-18T08:30:51.340Z,16.92
2018-04-18T08:31:51.397Z,16.83
2018-04-18T08:32:51.401Z,17.02
2018-04-18T08:33:51.454Z,17.02
2018-04-18T08:34:51.449Z,16.74
2018-04-18T08:35:51.476Z,16.93
2018-04-18T08:36:51.504Z,17.02
2018-04-18T08:37:51.531Z,16.82
2018-04-18T08:38:51.557Z,16.72
2018-04-18T08:39:51.586Z,16.82
2018-04-18T08:40:51.668Z,16.92
2018-04-18T08:41:51.639Z,17.12
2018-04-18T08:42:51.667Z,16.83
2018-04-18T08:43:51.696Z,16.92
2018-04-18T08:44:51.723Z,17.02
2018-04-18T08:45:51.753Z,17.40
2018-04-18T08:46:51.779Z,17.02
2018-04-18T08:47:51.804Z,16.82
2018-04-18T08:48:51.875Z,16.93
2018-04-18T08:49:51.859Z,16.54
2018-04-18T08:50:51.886Z,16.83
2018-04-18T08:51:51.953Z,16.83
2018-04-18T08:52:51.957Z,16.64
2018-04-18T08:53:52.004Z,16.64
2018-04-18T08:54:51.996Z,16.83
2018-04-18T08:55:52.023Z,16.83
2018-04-18T08:56:52.083Z,16.64
2018-04-18T08:57:52.111Z,16.74
2018-04-18T08:58:52.105Z,16.64
2018-04-18T08:59:52.134Z,16.64
2018-04-18T09:00:52.161Z,16.64
2018-04-18T09:01:52.187Z,16.74
2018-04-18T09:02:52.218Z,17.22
2018-04-18T09:03:52.244Z,16.64
2018-04-18T09:04:52.618Z,16.54
2018-04-18T09:05:52.298Z,16.64
2018-04-18T09:06:52.953Z,16.93
2018-04-18T09:07:52.360Z,17.02
2018-04-18T09:08:52.385Z,16.83
2018-04-18T09:09:52.469Z,16.83
2018-04-18T09:10:52.435Z,16.83
2018-04-18T09:11:52.463Z,16.83
2018-04-18T09:12:52.495Z,16.83
2018-04-18T09:13:52.523Z,16.93
2018-04-18T09:14:52.551Z,17.12
2018-04-18T09:15:52.573Z,17.12
2018-04-18T09:16:52.600Z,17.12
2018-04-18T09:17:52.626Z,17.02
2018-04-18T09:18:52.653Z,17.12
2018-04-18T09:19:52.709Z,17.12
2018-04-18T09:20:52.708Z,17.32
2018-04-18T09:21:52.735Z,17.22
2018-04-18T09:22:52.762Z,17.22
2018-04-18T09:23:52.792Z,17.32
2018-04-18T09:24:52.818Z,17.32
2018-04-18T09:25:52.846Z,17.12
2018-04-18T09:26:52.872Z,17.22
2018-04-18T09:27:52.907Z,17.22
2018-04-18T09:28:52.927Z,17.22
2018-04-18T09:29:52.956Z,17.22
2018-04-18T09:30:53.008Z,17.41
2018-04-18T09:31:53.009Z,17.32
2018-04-18T09:32:53.051Z,17.22
2018-04-18T09:33:53.069Z,17.22
2018-04-18T09:34:53.092Z,17.32
2018-04-18T09:35:53.120Z,17.22
2018-04-18T09:36:53.146Z,17.22
2018-04-18T09:37:53.174Z,17.12
2018-04-18T09:38:53.205Z,17.22
2018-04-18T09:39:53.233Z,17.12
2018-04-18T09:40:53.256Z,17.12
2018-04-18T09:41:53.283Z,17.41
2018-04-18T09:42:53.310Z,17.02
2018-04-18T09:43:53.347Z,17.12
2018-04-18T09:44:53.373Z,17.41
2018-04-18T09:45:53.404Z,17.22
2018-04-18T09:46:53.428Z,17.22
2018-04-18T09:47:53.455Z,17.32
2018-04-18T09:48:53.477Z,17.12
2018-04-18T09:49:53.530Z,17.22
2018-04-18T09:50:53.542Z,17.22
2018-04-18T09:51:53.561Z,17.12
2018-04-18T09:52:53.588Z,17.22
2018-04-18T09:53:53.624Z,17.32
2018-04-18T09:54:53.645Z,17.12
2018-04-18T09:55:53.668Z,17.12
2018-04-18T09:56:53.697Z,17.12
2018-04-18T09:57:53.723Z,17.12
2018-04-18T09:58:53.788Z,17.32
2018-04-18T09:59:53.783Z,17.32
2018-04-18T10:00:53.815Z,17.32
2018-04-18T10:01:53.836Z,17.41
2018-04-18T10:02:53.862Z,17.12
2018-04-18T10:03:53.888Z,17.02
2018-04-18T10:04:53.920Z,17.32
2018-04-18T10:05:53.943Z,17.02
2018-04-18T10:06:53.980Z,17.32
2018-04-18T10:07:53.999Z,17.02
2018-04-18T10:08:54.026Z,17.02
2018-04-18T10:09:54.053Z,17.02
2018-04-18T10:10:54.080Z,17.02
2018-04-18T10:11:54.139Z,17.02
2018-04-18T10:12:54.143Z,17.02
2018-04-18T10:13:54.162Z,17.41
2018-04-18T10:14:54.191Z,17.02
2018-04-18T10:15:54.218Z,17.02
2018-04-18T10:16:54.246Z,17.32
2018-04-18T10:17:54.272Z,17.12
2018-04-18T10:18:54.335Z,17.02
2018-04-18T10:19:54.357Z,17.12
2018-04-18T10:20:54.355Z,17.02
2018-04-18T10:21:54.385Z,17.02
2018-04-18T10:22:54.476Z,17.02
2018-04-18T10:23:54.437Z,17.12
2018-04-18T10:24:54.471Z,17.12
2018-04-18T10:25:54.492Z,17.02
2018-04-18T10:26:54.519Z,17.32
2018-04-18T10:27:54.552Z,17.32
2018-04-18T10:28:54.580Z,16.93
2018-04-18T10:29:54.605Z,17.12
2018-04-18T10:30:54.631Z,17.02
2018-04-18T10:31:55.488Z,17.02
2018-04-18T10:32:54.685Z,17.02
2018-04-18T10:33:54.718Z,17.41
2018-04-18T10:34:54.741Z,17.02
2018-04-18T10:35:54.779Z,17.32
2018-04-18T10:36:54.801Z,16.83
2018-04-18T10:37:54.899Z,17.41
2018-04-18T10:38:54.853Z,17.02
2018-04-18T10:39:54.877Z,17.02
2018-04-18T10:40:54.926Z,17.02
2018-04-18T10:41:54.931Z,17.02
2018-04-18T10:42:54.959Z,17.41
2018-04-18T10:43:54.986Z,17.41
2018-04-18T10:44:55.018Z,17.02
2018-04-18T10:45:55.041Z,17.41
2018-04-18T10:46:55.072Z,16.93
2018-04-18T10:47:55.097Z,17.12
2018-04-18T10:48:55.124Z,16.83
2018-04-18T10:49:55.173Z,16.93
2018-04-18T10:50:55.180Z,16.83
2018-04-18T10:51:55.212Z,16.93
2018-04-18T10:52:55.246Z,16.83
2018-04-18T10:53:55.263Z,16.83
2018-04-18T10:54:55.289Z,17.22
2018-04-18T10:55:55.318Z,16.83
2018-04-18T10:56:55.346Z,16.83
2018-04-18T10:57:55.376Z,16.64
2018-04-18T10:58:55.398Z,16.83
2018-04-18T10:59:55.432Z,16.74
2018-04-18T11:00:55.456Z,16.74
2018-04-18T11:01:55.485Z,16.64
2018-04-18T11:02:55.509Z,16.74
2018-04-18T11:03:55.538Z,16.93
2018-04-18T11:04:55.565Z,16.54
2018-04-18T11:05:55.644Z,16.93
2018-04-18T11:06:55.620Z,16.83
2018-04-18T11:07:55.653Z,16.83
2018-04-18T11:08:55.674Z,16.64
2018-04-18T11:09:55.703Z,16.83
2018-04-18T11:10:55.734Z,16.83
2018-04-18T11:11:55.757Z,16.74
2018-04-18T11:12:55.838Z,16.83
2018-04-18T11:13:55.816Z,16.83
2018-04-18T11:14:55.838Z,16.74
2018-04-18T11:15:55.868Z,16.83
2018-04-18T11:16:55.894Z,16.93
2018-04-18T11:17:55.920Z,16.83
2018-04-18T11:18:55.948Z,16.74
2018-04-18T11:19:55.977Z,16.83
2018-04-18T11:20:56.018Z,16.74
2018-04-18T11:21:56.030Z,16.83
2018-04-18T11:22:56.058Z,16.74
2018-04-18T11:23:56.086Z,16.74
2018-04-18T11:24:56.116Z,17.22
2018-04-18T11:25:56.141Z,16.83
2018-04-18T11:26:56.197Z,16.64
2018-04-18T11:27:56.197Z,16.93
2018-04-18T11:28:56.225Z,16.93
2018-04-18T11:29:56.251Z,16.83
2018-04-18T11:30:56.282Z,16.64
2018-04-18T11:31:56.307Z,16.64
2018-04-18T11:32:56.334Z,16.74
2018-04-18T11:33:56.362Z,16.83
2018-04-18T11:34:56.389Z,16.74
2018-04-18T11:35:56.419Z,16.83
2018-04-18T11:36:56.471Z,16.93
2018-04-18T11:37:56.485Z,16.74
2018-04-18T11:38:56.499Z,16.93
2018-04-18T11:39:56.527Z,16.83
2018-04-18T11:40:56.555Z,16.93
2018-04-18T11:41:56.616Z,16.74
2018-04-18T11:42:56.609Z,16.74
2018-04-18T11:43:56.637Z,16.83
2018-04-18T11:44:56.665Z,16.74
2018-04-18T11:45:56.692Z,16.74
2018-04-18T11:46:56.720Z,16.93
2018-04-18T11:47:56.747Z,16.93
2018-04-18T11:48:56.775Z,16.74
2018-04-18T11:49:56.802Z,16.64
2018-04-18T11:50:56.830Z,16.83
2018-04-18T11:51:56.906Z,16.93
2018-04-18T11:52:56.885Z,16.93
2018-04-18T11:53:56.946Z,16.83
2018-04-18T11:54:56.939Z,16.83
2018-04-18T11:55:57.010Z,16.83
2018-04-18T11:56:56.995Z,16.83
2018-04-18T11:57:57.021Z,16.74
2018-04-18T11:58:57.049Z,16.64
2018-04-18T11:59:57.077Z,16.64
2018-04-18T12:00:57.104Z,16.74
2018-04-18T12:01:57.131Z,16.64
2018-04-18T12:02:57.159Z,16.64
2018-04-18T12:03:57.186Z,16.83
2018-04-18T12:04:57.230Z,16.83
2018-04-18T12:05:57.243Z,16.83
2018-04-18T12:06:57.271Z,16.74
2018-04-18T12:07:57.323Z,16.82
2018-04-18T12:08:57.325Z,16.92
2018-04-18T12:09:57.351Z,16.64
2018-04-18T12:10:57.426Z,16.93
2018-04-18T12:11:57.406Z,16.83
2018-04-18T12:12:57.451Z,16.82
2018-04-18T12:13:57.461Z,16.72
2018-04-18T12:14:57.489Z,16.83
2018-04-18T12:15:57.519Z,17.02
2018-04-18T12:16:57.547Z,16.83
2018-04-18T12:17:57.584Z,16.82
2018-04-18T12:18:57.641Z,16.83
2018-04-18T12:19:57.627Z,16.74
2018-04-18T12:20:57.699Z,17.11
2018-04-18T12:21:57.682Z,16.74
2018-04-18T12:22:57.709Z,16.93
2018-04-18T12:23:57.735Z,16.74
2018-04-18T12:24:57.764Z,16.93
2018-04-18T12:25:57.790Z,16.93
2018-04-18T12:26:57.818Z,17.02
2018-04-18T12:27:57.846Z,16.82
2018-04-18T12:28:57.881Z,16.93
2018-04-18T12:29:57.901Z,16.93
2018-04-18T12:30:57.927Z,16.82
2018-04-18T12:31:57.963Z,16.92
2018-04-18T12:32:57.987Z,16.74
2018-04-18T12:33:58.009Z,16.82
2018-04-18T12:34:58.037Z,16.63
2018-04-18T12:35:58.065Z,16.72
2018-04-18T12:36:58.094Z,16.63
2018-04-18T12:37:58.133Z,16.72
2018-04-18T12:38:58.147Z,16.63
2018-04-18T12:39:58.175Z,16.63
2018-04-18T12:40:58.223Z,16.53
2018-04-18T12:41:58.230Z,16.63
2018-04-18T12:42:58.291Z,16.92
2018-04-18T12:43:58.285Z,16.92
2018-04-18T12:44:58.313Z,16.92
2018-04-18T12:45:58.342Z,16.63
2018-04-18T12:46:58.372Z,16.63
2018-04-18T12:47:58.395Z,16.92
2018-04-18T12:48:58.462Z,16.63
2018-04-18T12:49:58.458Z,16.82
2018-04-18T12:50:58.476Z,16.92
2018-04-18T12:51:58.505Z,16.92
2018-04-18T12:52:58.531Z,16.92
2018-04-18T12:53:58.559Z,16.92
2018-04-18T12:54:58.585Z,16.63
2018-04-18T12:55:58.669Z,16.82
2018-04-18T12:56:58.640Z,16.92
2018-04-18T12:57:58.667Z,16.92
2018-04-18T12:58:58.708Z,16.72
2018-04-18T12:59:58.722Z,16.92
2018-04-18T13:00:58.779Z,16.63
2018-04-18T13:01:58.777Z,16.63
2018-04-18T13:02:58.803Z,16.82
2018-04-18T13:03:58.832Z,16.82
2018-04-18T13:04:58.859Z,16.92
2018-04-18T13:05:58.886Z,16.82
2018-04-18T13:06:58.923Z,16.82
2018-04-18T13:07:58.963Z,16.63
2018-04-18T13:08:58.974Z,16.63
2018-04-18T13:09:58.995Z,16.72
2018-04-18T13:10:59.023Z,16.63
2018-04-18T13:11:59.052Z,16.53
2018-04-18T13:12:59.079Z,16.53
2018-04-18T13:13:59.108Z,16.82
2018-04-18T13:14:59.186Z,16.72
2018-04-18T13:15:59.160Z,16.63
2018-04-18T13:16:59.189Z,16.82
2018-04-18T13:17:59.215Z,16.82
2018-04-18T13:18:59.245Z,16.72
2018-04-18T13:19:59.270Z,16.72
2018-04-18T13:20:59.297Z,16.63
2018-04-18T13:21:59.325Z,16.63
2018-04-18T13:22:59.353Z,16.72
2018-04-18T13:23:59.381Z,16.53
2018-04-18T13:24:59.407Z,16.63
2018-04-18T13:25:59.434Z,16.72
2018-04-18T13:26:59.461Z,16.82
2018-04-18T13:27:59.488Z,16.63
2018-04-18T13:28:59.516Z,16.92
2018-04-18T13:29:59.574Z,16.82
2018-04-18T13:30:59.575Z,16.72
2018-04-18T13:31:59.619Z,16.63
2018-04-18T13:32:59.627Z,16.82
2018-04-18T13:33:59.654Z,17.02
2018-04-18T13:34:59.681Z,16.83
2018-04-18T13:35:59.709Z,16.82
2018-04-18T13:36:59.736Z,16.63
2018-04-18T13:37:59.762Z,16.82
2018-04-18T13:38:59.793Z,16.63
2018-04-18T13:39:59.820Z,16.63
2018-04-18T13:40:59.850Z,16.72
2018-04-18T13:41:59.872Z,16.82
2018-04-18T13:42:59.900Z,16.72
2018-04-18T13:43:59.930Z,16.63
2018-04-18T13:44:59.955Z,16.72
2018-04-18T13:45:59.982Z,16.72
2018-04-18T13:47:00.010Z,16.53
2018-04-18T13:48:00.061Z,16.63
2018-04-18T13:49:00.066Z,16.34
2018-04-18T13:50:00.093Z,16.44
2018-04-18T13:51:00.128Z,16.53
2018-04-18T13:52:00.150Z,16.34
2018-04-18T13:53:00.176Z,16.34
2018-04-18T13:54:00.202Z,16.44
2018-04-18T13:55:00.233Z,16.34
2018-04-18T13:56:00.291Z,16.34
2018-04-18T13:57:00.287Z,16.24
2018-04-18T13:58:00.312Z,16.53
2018-04-18T13:59:00.344Z,16.63
2018-04-18T14:00:00.369Z,16.72
2018-04-18T14:01:00.396Z,16.63
2018-04-18T14:02:00.421Z,16.72
2018-04-18T14:03:00.449Z,16.64
2018-04-18T14:04:00.477Z,16.63
2018-04-18T14:05:00.504Z,16.53
2018-04-18T14:06:00.531Z,16.53
2018-04-18T14:07:00.558Z,16.64
2018-04-18T14:08:00.591Z,16.53
2018-04-18T14:09:00.613Z,16.44
2018-04-18T14:10:00.639Z,16.63
2018-04-18T14:11:00.693Z,16.53
2018-04-18T14:12:00.696Z,16.63
2018-04-18T14:13:00.722Z,16.53
2018-04-18T14:14:00.779Z,16.44
2018-04-18T14:15:00.777Z,16.44
2018-04-18T14:16:00.804Z,16.35
2018-04-18T14:17:00.833Z,16.34
2018-04-18T14:18:00.861Z,16.24
2018-04-18T14:19:00.886Z,16.44
2018-04-18T14:20:00.915Z,16.34
2018-04-18T14:21:00.942Z,16.35
2018-04-18T14:22:00.968Z,16.44
2018-04-18T14:23:00.997Z,16.24
2018-04-18T14:24:01.025Z,16.25
2018-04-18T14:25:01.054Z,16.24
2018-04-18T14:26:01.079Z,16.35
2018-04-18T14:27:01.136Z,16.24
2018-04-18T14:28:01.151Z,16.34
2018-04-18T14:29:01.162Z,16.34
2018-04-18T14:30:01.230Z,16.35
2018-04-18T14:31:01.256Z,16.24
2018-04-18T14:32:01.273Z,16.14
2018-04-18T14:33:01.272Z,16.24
2018-04-18T14:34:01.300Z,16.34
2018-04-18T14:35:01.328Z,16.14
2018-04-18T14:36:01.354Z,16.24
2018-04-18T14:37:01.381Z,16.14
2018-04-18T14:38:01.409Z,16.24
2018-04-18T14:39:01.436Z,16.24
2018-04-18T14:40:01.464Z,16.24
2018-04-18T14:41:01.491Z,16.14
2018-04-18T14:42:01.519Z,16.24
2018-04-18T14:43:01.545Z,16.14
2018-04-18T14:44:01.575Z,16.14
2018-04-18T14:45:01.601Z,16.34
2018-04-18T14:46:01.629Z,16.34
2018-04-18T14:47:01.658Z,16.24
2018-04-18T14:48:01.683Z,16.34
2018-04-18T14:49:01.710Z,16.24
2018-04-18T14:50:01.737Z,16.53
2018-04-18T14:51:01.765Z,16.24
2018-04-18T14:52:01.794Z,16.24
2018-04-18T14:53:01.819Z,16.34
2018-04-18T14:54:01.847Z,16.14
2018-04-18T14:55:01.901Z,16.44
2018-04-18T14:56:01.902Z,16.24
2018-04-18T14:57:01.929Z,16.44
2018-04-18T14:58:01.958Z,16.34